createdAt,value
2016-07-30T00:00:14.398Z,20.25
2016-07-30T00:03:20.882Z,20.13
2016-07-30T00:08:12.909Z,20.07
2016-07-30T00:09:14.784Z,20.12
2016-07-30T00:10:21.962Z,20.13
2016-07-30T00:12:21.360Z,19.99
2016-07-30T00:17:11.849Z,20.03
2016-07-30T00:18:12.633Z,20.04
2016-07-30T00:19:13.933Z,20.01
2016-07-30T00:21:23.334Z,20.00
2016-07-30T00:22:20.406Z,19.98
2016-07-30T00:23:12.518Z,19.99
2016-07-30T00:30:09.606Z,19.92
2016-07-30T00:32:20.990Z,19.92
2016-07-30T00:35:17.523Z,19.85
2016-07-30T00:37:12.030Z,19.89
2016-07-30T00:38:21.710Z,19.88
2016-07-30T00:39:14.799Z,19.87
2016-07-30T00:40:14.036Z,19.88
2016-07-30T00:41:22.488Z,19.84
2016-07-30T00:42:19.062Z,19.79
2016-07-30T00:43:12.466Z,19.79
2016-07-30T00:44:27.602Z,19.79
2016-07-30T00:47:14.006Z,19.69
2016-07-30T00:59:13.442Z,19.61
2016-07-30T01:00:19.256Z,19.66
2016-07-30T01:01:27.809Z,19.68
2016-07-30T01:02:23.510Z,19.63
2016-07-30T01:04:28.409Z,19.61
2016-07-30T01:06:12.828Z,19.61
2016-07-30T01:09:20.665Z,19.55
2016-07-30T01:10:13.742Z,19.57
2016-07-30T01:11:14.755Z,19.56
2016-07-30T01:12:17.741Z,19.51
2016-07-30T01:19:13.670Z,19.36
2016-07-30T01:20:17.342Z,19.38
2016-07-30T01:21:23.583Z,19.37
2016-07-30T01:23:20.691Z,19.32
2016-07-30T01:24:23.997Z,19.31
2016-07-30T01:25:23.385Z,19.29
2016-07-30T01:29:23.099Z,19.28
2016-07-30T01:30:14.132Z,19.29
2016-07-30T01:32:19.109Z,19.33
2016-07-30T01:34:22.586Z,19.29
2016-07-30T01:41:18.139Z,19.32
2016-07-30T01:42:20.405Z,19.34
2016-07-30T01:43:20.518Z,19.22
2016-07-30T01:45:22.900Z,19.25
2016-07-30T01:47:28.699Z,19.31
2016-07-30T01:48:30.046Z,19.30
2016-07-30T01:51:17.042Z,19.25
2016-07-30T01:56:20.158Z,19.21
2016-07-30T01:57:12.134Z,19.26
2016-07-30T01:58:12.238Z,19.25
2016-07-30T02:01:19.989Z,19.31
2016-07-30T02:02:21.227Z,19.33
2016-07-30T02:03:20.559Z,19.30
2016-07-30T02:04:19.269Z,19.33
2016-07-30T02:05:17.266Z,19.25
2016-07-30T02:06:14.834Z,19.29
2016-07-30T02:07:13.253Z,19.26
2016-07-30T02:08:15.107Z,19.33
2016-07-30T02:09:22.444Z,19.33
2016-07-30T02:10:14.151Z,19.38
2016-07-30T02:14:13.176Z,19.31
2016-07-30T02:15:17.750Z,19.32
2016-07-30T02:17:19.083Z,19.30
2016-07-30T02:19:17.267Z,19.25
2016-07-30T02:25:18.101Z,19.16
2016-07-30T02:26:18.058Z,19.16
2016-07-30T02:27:14.878Z,19.14
2016-07-30T02:29:14.942Z,19.16
2016-07-30T02:32:18.725Z,19.14
2016-07-30T02:33:21.825Z,19.12
2016-07-30T02:34:13.242Z,19.12
2016-07-30T02:38:14.542Z,18.95
2016-07-30T02:39:22.110Z,18.93
2016-07-30T02:40:13.587Z,18.96
2016-07-30T02:43:20.291Z,19.00
2016-07-30T02:44:14.962Z,18.98
2016-07-30T02:47:17.233Z,18.95
2016-07-30T02:48:12.580Z,18.94
2016-07-30T02:49:21.520Z,18.93
2016-07-30T02:51:16.001Z,18.85
2016-07-30T02:54:12.161Z,18.85
2016-07-30T02:56:22.672Z,18.88
2016-07-30T02:57:17.672Z,18.84
2016-07-30T02:58:14.075Z,18.84
2016-07-30T02:59:20.676Z,18.82
2016-07-30T03:01:16.648Z,18.74
2016-07-30T03:02:12.481Z,18.72
2016-07-30T03:04:21.794Z,18.74
2016-07-30T03:05:40.250Z,18.70
2016-07-30T03:09:17.288Z,18.75
2016-07-30T03:11:32.503Z,18.78
2016-07-30T03:14:19.252Z,18.85
2016-07-30T03:15:13.421Z,18.88
2016-07-30T03:17:12.303Z,18.90
2016-07-30T03:18:20.725Z,18.90
2016-07-30T03:21:13.226Z,18.87
2016-07-30T03:23:21.570Z,18.83
2016-07-30T03:24:20.836Z,18.86
2016-07-30T03:25:12.515Z,18.88
2016-07-30T03:27:22.808Z,18.85
2016-07-30T03:29:14.152Z,18.84
2016-07-30T03:30:21.110Z,18.83
2016-07-30T03:31:17.848Z,18.76
2016-07-30T03:32:27.996Z,18.77
2016-07-30T03:34:21.425Z,18.72
2016-07-30T03:35:12.295Z,18.75
2016-07-30T03:36:11.803Z,18.74
2016-07-30T03:37:23.364Z,18.76
2016-07-30T03:40:35.342Z,18.71
2016-07-30T03:43:14.067Z,18.66
2016-07-30T03:45:21.295Z,18.72
2016-07-30T03:47:14.478Z,18.70
2016-07-30T03:48:14.338Z,18.74
2016-07-30T03:49:13.681Z,18.75
2016-07-30T03:50:21.816Z,18.78
2016-07-30T03:55:18.026Z,18.76
2016-07-30T03:56:19.226Z,18.78
2016-07-30T04:01:14.436Z,18.80
2016-07-30T04:02:28.155Z,18.78
2016-07-30T04:03:12.554Z,18.78
2016-07-30T04:04:12.342Z,18.82
2016-07-30T04:06:14.602Z,18.84
2016-07-30T04:07:12.963Z,18.87
2016-07-30T04:08:22.092Z,18.86
2016-07-30T04:10:23.320Z,18.87
2016-07-30T04:11:13.422Z,18.86
2016-07-30T04:12:19.236Z,18.81
2016-07-30T04:13:29.323Z,18.86
2016-07-30T04:17:18.613Z,18.87
2016-07-30T04:19:20.830Z,18.88
2016-07-30T04:20:23.051Z,18.89
2016-07-30T04:21:34.053Z,18.89
2016-07-30T04:22:24.052Z,18.86
2016-07-30T04:24:18.988Z,18.88
2016-07-30T04:25:18.482Z,18.88
2016-07-30T04:27:14.272Z,18.88
2016-07-30T04:29:18.686Z,18.90
2016-07-30T04:30:19.608Z,18.87
2016-07-30T04:31:14.750Z,18.89
2016-07-30T04:32:18.039Z,18.87
2016-07-30T04:33:14.099Z,18.92
2016-07-30T04:34:20.669Z,18.92
2016-07-30T04:36:14.024Z,18.87
2016-07-30T04:37:15.068Z,18.84
2016-07-30T04:38:12.894Z,18.88
2016-07-30T04:39:16.968Z,18.85
2016-07-30T04:40:20.752Z,18.87
2016-07-30T04:43:14.210Z,18.90
2016-07-30T04:44:29.419Z,18.87
2016-07-30T04:45:17.298Z,18.94
2016-07-30T04:47:11.636Z,19.06
2016-07-30T04:48:16.516Z,19.03
2016-07-30T04:49:11.358Z,19.00
2016-07-30T04:50:20.948Z,18.99
2016-07-30T04:52:11.747Z,18.97
2016-07-30T04:53:17.103Z,19.01
2016-07-30T04:55:18.925Z,19.07
2016-07-30T04:56:18.976Z,19.04
2016-07-30T04:57:13.079Z,19.02
2016-07-30T04:58:23.043Z,19.00
2016-07-30T04:59:12.642Z,19.00
2016-07-30T05:00:14.317Z,19.06
2016-07-30T05:01:17.045Z,19.07
2016-07-30T05:03:16.716Z,19.10
2016-07-30T05:04:20.969Z,19.08
2016-07-30T05:05:12.611Z,19.08
2016-07-30T05:06:11.661Z,19.10
2016-07-30T05:08:29.746Z,19.14
2016-07-30T05:09:14.313Z,19.16
2016-07-30T05:11:18.703Z,19.22
2016-07-30T05:12:13.428Z,19.23
2016-07-30T05:13:11.922Z,19.23
2016-07-30T05:14:12.191Z,19.26
2016-07-30T05:17:16.974Z,19.32
2016-07-30T05:21:23.996Z,19.26
2016-07-30T05:22:18.470Z,19.29
2016-07-30T05:25:13.079Z,19.42
2016-07-30T05:26:31.706Z,19.45
2016-07-30T05:27:29.759Z,19.40
2016-07-30T05:30:23.531Z,19.35
2016-07-30T05:31:29.757Z,19.44
2016-07-30T05:32:21.834Z,19.52
2016-07-30T05:33:32.131Z,19.56
2016-07-30T05:35:14.717Z,19.64
2016-07-30T05:36:13.225Z,19.63
2016-07-30T05:37:21.064Z,19.65
2016-07-30T05:41:11.983Z,19.78
2016-07-30T05:42:23.156Z,19.74
2016-07-30T05:44:19.191Z,19.82
2016-07-30T05:45:16.156Z,19.86
2016-07-30T05:47:16.557Z,19.85
2016-07-30T05:49:26.121Z,19.92
2016-07-30T05:52:29.134Z,20.03
2016-07-30T05:54:20.065Z,20.05
2016-07-30T05:55:15.795Z,20.05
2016-07-30T05:57:16.882Z,20.08
2016-07-30T05:58:11.558Z,20.11
2016-07-30T05:59:23.182Z,20.16
2016-07-30T06:00:14.895Z,20.15
2016-07-30T06:01:20.330Z,20.18
2016-07-30T06:02:19.989Z,20.22
2016-07-30T06:03:13.620Z,20.28
2016-07-30T06:04:22.232Z,20.30
2016-07-30T06:05:09.867Z,20.32
2016-07-30T06:08:18.430Z,20.40
2016-07-30T06:10:22.308Z,20.43
2016-07-30T06:11:12.656Z,20.47
2016-07-30T06:12:13.640Z,20.49
2016-07-30T06:14:21.017Z,20.52
2016-07-30T06:15:14.388Z,20.52
2016-07-30T06:16:11.808Z,20.52
2016-07-30T06:17:12.190Z,20.55
2016-07-30T06:18:23.285Z,20.55
2016-07-30T06:24:17.498Z,20.72
2016-07-30T06:26:23.049Z,20.78
2016-07-30T06:27:23.180Z,20.79
2016-07-30T06:28:12.497Z,20.78
2016-07-30T06:29:29.603Z,20.86
2016-07-30T06:30:22.849Z,20.86
2016-07-30T06:31:28.291Z,20.89
2016-07-30T06:32:18.863Z,20.95
2016-07-30T06:35:30.403Z,21.00
2016-07-30T06:36:12.767Z,21.03
2016-07-30T06:38:22.100Z,21.08
2016-07-30T06:40:18.959Z,21.05
2016-07-30T06:41:20.042Z,21.05
2016-07-30T06:42:12.097Z,21.08
2016-07-30T06:43:12.382Z,21.09
2016-07-30T06:44:22.652Z,21.08
2016-07-30T06:45:18.946Z,21.09
2016-07-30T06:46:22.519Z,21.12
2016-07-30T06:47:11.791Z,21.16
2016-07-30T06:51:22.713Z,21.27
2016-07-30T06:52:22.517Z,21.26
2016-07-30T06:53:13.103Z,21.33
2016-07-30T06:54:20.680Z,21.39
2016-07-30T06:58:22.529Z,21.44
2016-07-30T06:59:15.022Z,21.42
2016-07-30T07:00:11.999Z,21.43
2016-07-30T07:01:37.662Z,21.52
2016-07-30T07:02:12.223Z,21.55
2016-07-30T07:03:12.290Z,21.56
2016-07-30T07:04:22.433Z,21.55
2016-07-30T07:05:21.530Z,21.59
2016-07-30T07:06:17.195Z,21.55
2016-07-30T07:08:12.973Z,21.61
2016-07-30T07:10:12.194Z,21.61
2016-07-30T07:14:12.579Z,21.77
2016-07-30T07:15:18.951Z,21.77
2016-07-30T07:16:14.833Z,21.80
2016-07-30T07:17:12.914Z,21.86
2016-07-30T07:19:12.124Z,21.87
2016-07-30T07:20:17.530Z,21.85
2016-07-30T07:21:10.062Z,21.90
2016-07-30T07:23:12.503Z,21.92
2016-07-30T07:25:13.974Z,21.96
2016-07-30T07:28:12.528Z,21.99
2016-07-30T07:29:21.939Z,21.98
2016-07-30T07:30:22.689Z,22.06
2016-07-30T07:32:11.709Z,22.03
2016-07-30T07:33:18.594Z,22.03
2016-07-30T07:34:17.271Z,22.11
2016-07-30T07:36:16.992Z,22.07
2016-07-30T07:38:22.108Z,22.09
2016-07-30T07:39:23.423Z,22.13
2016-07-30T07:40:27.723Z,22.18
2016-07-30T07:41:23.291Z,22.19
2016-07-30T07:42:13.603Z,22.24
2016-07-30T07:43:21.417Z,22.23
2016-07-30T07:44:20.064Z,22.24
2016-07-30T07:45:19.242Z,22.24
2016-07-30T07:46:12.471Z,22.23
2016-07-30T07:47:21.058Z,22.30
2016-07-30T07:48:12.924Z,22.28
2016-07-30T07:49:21.048Z,22.28
2016-07-30T07:50:12.665Z,22.31
2016-07-30T07:51:21.977Z,22.33
2016-07-30T07:52:16.741Z,22.32
2016-07-30T07:54:13.977Z,22.35
2016-07-30T07:55:21.709Z,22.40
2016-07-30T07:56:22.316Z,22.43
2016-07-30T07:57:12.727Z,22.40
2016-07-30T07:58:25.996Z,22.57
2016-07-30T07:59:23.159Z,22.54
2016-07-30T08:00:12.283Z,22.57
2016-07-30T08:02:13.177Z,22.60
2016-07-30T08:03:14.228Z,22.57
2016-07-30T08:04:18.414Z,22.64
2016-07-30T08:05:12.602Z,22.66
2016-07-30T08:06:16.768Z,22.70
2016-07-30T08:07:23.002Z,22.74
2016-07-30T08:08:13.068Z,22.74
2016-07-30T08:09:23.215Z,22.67
2016-07-30T08:10:10.651Z,22.65
2016-07-30T08:12:18.965Z,22.66
2016-07-30T08:13:23.436Z,22.72
2016-07-30T08:14:19.826Z,22.77
2016-07-30T08:15:13.452Z,22.76
2016-07-30T08:16:12.481Z,22.82
2016-07-30T08:17:17.274Z,22.80
2016-07-30T08:18:16.125Z,22.79
2016-07-30T08:19:14.578Z,22.76
2016-07-30T08:20:17.421Z,22.84
2016-07-30T08:21:17.836Z,22.90
2016-07-30T08:22:18.553Z,22.98
2016-07-30T08:23:19.579Z,23.08
2016-07-30T08:24:15.435Z,23.08
2016-07-30T08:25:22.613Z,23.07
2016-07-30T08:26:30.074Z,23.08
2016-07-30T08:27:15.331Z,23.09
2016-07-30T08:28:15.301Z,23.14
2016-07-30T08:29:23.296Z,23.20
2016-07-30T08:30:22.242Z,23.11
2016-07-30T08:32:18.955Z,23.12
2016-07-30T08:33:18.827Z,23.14
2016-07-30T08:34:21.038Z,23.15
2016-07-30T08:35:13.523Z,23.22
2016-07-30T08:37:14.506Z,23.16
2016-07-30T08:38:12.025Z,23.15
2016-07-30T08:39:19.415Z,23.21
2016-07-30T08:40:12.896Z,23.25
2016-07-30T08:42:11.503Z,23.31
2016-07-30T08:43:20.975Z,23.32
2016-07-30T08:45:23.247Z,23.33
2016-07-30T08:46:12.880Z,23.34
2016-07-30T08:47:13.416Z,23.51
2016-07-30T08:48:14.478Z,23.56
2016-07-30T08:49:28.533Z,23.51
2016-07-30T08:50:23.391Z,23.47
2016-07-30T08:51:22.653Z,23.53
2016-07-30T08:53:28.443Z,23.64
2016-07-30T08:54:17.440Z,23.59
2016-07-30T08:55:18.378Z,23.53
2016-07-30T08:56:20.274Z,23.58
2016-07-30T08:57:21.418Z,23.71
2016-07-30T08:58:22.449Z,23.69
2016-07-30T08:59:11.847Z,23.71
2016-07-30T09:00:14.136Z,23.74
2016-07-30T09:01:17.608Z,23.75
2016-07-30T09:02:22.806Z,23.86
2016-07-30T09:03:10.624Z,23.87
2016-07-30T09:04:18.008Z,23.82
2016-07-30T09:05:13.127Z,23.79
2016-07-30T09:06:17.791Z,23.72
2016-07-30T09:07:16.102Z,23.71
2016-07-30T09:08:19.616Z,23.75
2016-07-30T09:09:15.190Z,23.91
2016-07-30T09:10:11.647Z,23.95
2016-07-30T09:12:19.068Z,23.75
2016-07-30T09:13:14.255Z,23.83
2016-07-30T09:15:22.564Z,23.79
2016-07-30T09:18:17.004Z,23.90
2016-07-30T09:19:17.796Z,24.03
2016-07-30T09:20:17.855Z,24.02
2016-07-30T09:23:22.610Z,23.91
2016-07-30T09:27:12.232Z,24.09
2016-07-30T09:28:22.544Z,24.08
2016-07-30T09:29:16.670Z,24.21
2016-07-30T09:30:37.426Z,24.23
2016-07-30T09:31:22.122Z,24.21
2016-07-30T09:32:44.228Z,24.14
2016-07-30T09:33:16.540Z,24.14
2016-07-30T09:34:37.969Z,24.15
2016-07-30T09:35:11.826Z,24.11
2016-07-30T09:36:30.999Z,24.11
2016-07-30T09:38:29.701Z,24.25
2016-07-30T09:40:15.425Z,24.40
2016-07-30T09:41:11.728Z,24.43
2016-07-30T09:42:12.155Z,24.39
2016-07-30T09:43:12.409Z,24.40
2016-07-30T09:44:20.719Z,24.39
2016-07-30T09:45:19.250Z,24.33
2016-07-30T09:46:17.550Z,24.30
2016-07-30T09:47:22.241Z,24.28
2016-07-30T09:48:29.951Z,24.22
2016-07-30T09:49:19.004Z,24.31
2016-07-30T09:50:17.565Z,24.50
2016-07-30T09:51:34.367Z,24.48
2016-07-30T09:53:17.349Z,24.49
2016-07-30T09:55:16.671Z,24.54
2016-07-30T09:56:30.199Z,24.49
2016-07-30T09:57:32.898Z,24.54
2016-07-30T09:58:11.548Z,24.63
2016-07-30T09:59:22.881Z,24.54
2016-07-30T10:00:16.843Z,24.47
2016-07-30T10:02:18.129Z,24.52
2016-07-30T10:03:13.142Z,24.51
2016-07-30T10:04:23.360Z,24.48
2016-07-30T10:06:18.620Z,24.50
2016-07-30T10:07:17.003Z,24.48
2016-07-30T10:08:12.110Z,24.67
2016-07-30T10:10:12.036Z,24.84
2016-07-30T10:12:19.052Z,24.77
2016-07-30T10:13:09.298Z,24.72
2016-07-30T10:15:12.474Z,24.78
2016-07-30T10:16:15.907Z,24.69
2016-07-30T10:17:17.023Z,24.67
2016-07-30T10:18:10.625Z,24.69
2016-07-30T10:20:12.401Z,24.66
2016-07-30T10:21:17.926Z,24.61
2016-07-30T10:22:12.467Z,24.66
2016-07-30T10:23:17.415Z,24.71
2016-07-30T10:24:16.920Z,24.76
2016-07-30T10:25:12.401Z,24.87
2016-07-30T10:26:18.714Z,24.98
2016-07-30T10:27:12.838Z,25.13
2016-07-30T10:28:11.931Z,25.20
2016-07-30T10:29:22.465Z,25.12
2016-07-30T10:30:14.290Z,25.01
2016-07-30T10:31:16.851Z,24.93
2016-07-30T10:32:19.287Z,24.93
2016-07-30T10:33:22.605Z,24.92
2016-07-30T10:34:18.859Z,24.99
2016-07-30T10:35:22.685Z,25.29
2016-07-30T10:36:13.048Z,25.41
2016-07-30T10:37:15.496Z,25.43
2016-07-30T10:38:25.345Z,25.38
2016-07-30T10:39:21.648Z,25.51
2016-07-30T10:40:17.556Z,25.51
2016-07-30T10:42:11.652Z,25.44
2016-07-30T10:43:23.264Z,25.33
2016-07-30T10:45:23.617Z,25.33
2016-07-30T10:46:19.546Z,25.40
2016-07-30T10:47:22.641Z,25.53
2016-07-30T10:48:30.111Z,25.64
2016-07-30T10:49:12.191Z,25.62
2016-07-30T10:51:22.232Z,25.50
2016-07-30T10:52:19.000Z,25.63
2016-07-30T10:53:36.930Z,25.73
2016-07-30T10:54:13.775Z,25.72
2016-07-30T10:55:11.943Z,25.62
2016-07-30T10:56:21.083Z,25.55
2016-07-30T10:57:12.453Z,25.44
2016-07-30T10:58:12.449Z,25.43
2016-07-30T10:59:14.257Z,25.35
2016-07-30T11:02:39.999Z,25.46
2016-07-30T11:03:29.675Z,25.43
2016-07-30T11:04:20.414Z,25.44
2016-07-30T11:05:20.577Z,25.43
2016-07-30T11:06:12.540Z,25.48
2016-07-30T11:07:13.136Z,25.34
2016-07-30T11:08:21.457Z,25.25
2016-07-30T11:09:20.003Z,25.33
2016-07-30T11:10:14.011Z,25.29
2016-07-30T11:12:21.789Z,25.36
2016-07-30T11:13:17.208Z,25.44
2016-07-30T11:14:20.267Z,25.49
2016-07-30T11:16:29.403Z,25.64
2016-07-30T11:17:18.599Z,25.65
2016-07-30T11:18:18.434Z,25.44
2016-07-30T11:19:17.259Z,25.39
2016-07-30T11:20:26.462Z,25.54
2016-07-30T11:21:32.890Z,25.55
2016-07-30T11:22:19.805Z,25.71
2016-07-30T11:23:19.440Z,25.65
2016-07-30T11:24:21.248Z,25.53
2016-07-30T11:25:20.001Z,25.66
2016-07-30T11:26:13.040Z,25.62
2016-07-30T11:28:22.712Z,25.47
2016-07-30T11:29:18.682Z,25.52
2016-07-30T11:30:25.650Z,25.54
2016-07-30T11:31:16.821Z,25.58
2016-07-30T11:32:16.668Z,25.70
2016-07-30T11:34:18.181Z,25.74
2016-07-30T11:35:18.652Z,25.71
2016-07-30T11:36:40.930Z,25.73
2016-07-30T11:38:19.915Z,25.98
2016-07-30T11:39:19.395Z,25.98
2016-07-30T11:40:17.475Z,26.07
2016-07-30T11:42:30.360Z,26.01
2016-07-30T11:43:17.024Z,26.04
2016-07-30T11:45:23.438Z,26.27
2016-07-30T11:47:12.137Z,26.20
2016-07-30T11:49:22.835Z,26.31
2016-07-30T11:51:20.095Z,26.22
2016-07-30T11:52:12.447Z,26.23
2016-07-30T11:53:12.149Z,26.45
2016-07-30T11:54:16.817Z,26.42
2016-07-30T11:55:36.075Z,26.62
2016-07-30T11:56:18.337Z,26.53
2016-07-30T11:58:12.263Z,26.23
2016-07-30T11:59:18.515Z,26.26
2016-07-30T12:00:11.540Z,26.39
2016-07-30T12:01:12.076Z,26.38
2016-07-30T12:02:17.306Z,26.37
2016-07-30T12:03:23.563Z,26.33
2016-07-30T12:05:30.436Z,26.41
2016-07-30T12:06:18.096Z,26.63
2016-07-30T12:07:12.894Z,26.85
2016-07-30T12:08:21.897Z,26.89
2016-07-30T12:09:25.923Z,26.84
2016-07-30T12:10:26.147Z,26.85
2016-07-30T12:11:12.560Z,26.83
2016-07-30T12:12:12.426Z,26.79
2016-07-30T12:13:10.786Z,26.79
2016-07-30T12:14:20.926Z,26.65
2016-07-30T12:15:16.955Z,26.83
2016-07-30T12:16:34.547Z,26.83
2016-07-30T12:17:16.787Z,26.86
2016-07-30T12:18:12.178Z,26.71
2016-07-30T12:19:29.778Z,26.62
2016-07-30T12:20:38.348Z,26.72
2016-07-30T12:21:20.547Z,26.78
2016-07-30T12:22:13.215Z,26.77
2016-07-30T12:23:29.217Z,26.87
2016-07-30T12:24:35.104Z,26.91
2016-07-30T12:26:15.202Z,27.27
2016-07-30T12:27:12.644Z,27.28
2016-07-30T12:28:12.478Z,27.21
2016-07-30T12:30:23.154Z,27.13
2016-07-30T12:31:22.964Z,27.07
2016-07-30T12:32:16.986Z,27.13
2016-07-30T12:33:26.481Z,27.24
2016-07-30T12:35:16.954Z,27.36
2016-07-30T12:36:22.862Z,27.21
2016-07-30T12:37:23.129Z,27.27
2016-07-30T12:38:20.688Z,27.26
2016-07-30T12:39:23.103Z,27.23
2016-07-30T12:40:23.518Z,27.03
2016-07-30T12:41:24.577Z,26.94
2016-07-30T12:42:17.995Z,26.99
2016-07-30T12:43:16.534Z,27.10
2016-07-30T12:44:20.995Z,27.14
2016-07-30T12:45:12.256Z,27.18
2016-07-30T12:47:23.125Z,27.39
2016-07-30T12:48:13.637Z,27.41
2016-07-30T12:49:12.124Z,27.33
2016-07-30T12:50:29.922Z,27.44
2016-07-30T12:51:35.246Z,27.55
2016-07-30T12:52:12.374Z,27.56
2016-07-30T12:53:21.016Z,27.61
2016-07-30T12:54:17.904Z,27.78
2016-07-30T12:55:34.991Z,27.77
2016-07-30T12:56:22.800Z,27.96
2016-07-30T12:57:12.687Z,28.08
2016-07-30T12:58:11.866Z,28.16
2016-07-30T12:59:14.971Z,28.21
2016-07-30T13:00:23.507Z,28.06
2016-07-30T13:01:11.935Z,28.05
2016-07-30T13:02:18.098Z,28.04
2016-07-30T13:03:12.743Z,28.04
2016-07-30T13:04:17.295Z,27.93
2016-07-30T13:05:19.434Z,28.08
2016-07-30T13:06:12.375Z,28.19
2016-07-30T13:08:23.143Z,28.11
2016-07-30T13:10:17.774Z,28.27
2016-07-30T13:11:17.630Z,28.41
2016-07-30T13:12:12.115Z,28.58
2016-07-30T13:13:16.902Z,28.52
2016-07-30T13:14:19.948Z,28.52
2016-07-30T13:16:18.560Z,28.50
2016-07-30T13:17:11.862Z,28.49
2016-07-30T13:18:16.389Z,28.54
2016-07-30T13:19:25.313Z,28.62
2016-07-30T13:20:38.263Z,28.73
2016-07-30T13:22:18.547Z,28.78
2016-07-30T13:23:28.178Z,28.79
2016-07-30T13:24:23.433Z,28.75
2016-07-30T13:26:42.227Z,28.97
2016-07-30T13:27:18.874Z,28.92
2016-07-30T13:28:17.831Z,28.92
2016-07-30T13:29:11.625Z,29.09
2016-07-30T13:30:18.971Z,29.24
2016-07-30T13:31:18.705Z,29.13
2016-07-30T13:32:35.978Z,29.17
2016-07-30T13:33:11.610Z,29.28
2016-07-30T13:34:14.679Z,29.24
2016-07-30T13:35:16.734Z,29.36
2016-07-30T13:36:16.654Z,29.48
2016-07-30T13:37:18.879Z,29.49
2016-07-30T13:38:13.863Z,29.31
2016-07-30T13:39:19.363Z,29.17
2016-07-30T13:40:11.670Z,29.35
2016-07-30T13:41:18.791Z,29.04
2016-07-30T13:42:22.265Z,28.97
2016-07-30T13:43:12.245Z,29.21
2016-07-30T13:44:08.329Z,29.55
2016-07-30T13:45:27.694Z,29.73
2016-07-30T13:46:11.786Z,29.72
2016-07-30T13:47:13.220Z,29.87
2016-07-30T13:48:21.291Z,30.00
2016-07-30T13:49:12.678Z,30.13
2016-07-30T13:50:17.637Z,30.08
2016-07-30T13:51:21.962Z,30.32
2016-07-30T13:52:13.332Z,30.02
2016-07-30T13:53:11.079Z,29.53
2016-07-30T13:54:12.670Z,29.12
2016-07-30T13:56:18.021Z,29.59
2016-07-30T13:57:19.570Z,29.89
2016-07-30T13:58:13.879Z,30.08
2016-07-30T13:59:12.007Z,30.16
2016-07-30T14:00:13.515Z,30.29
2016-07-30T14:01:17.806Z,30.38
2016-07-30T14:02:17.450Z,30.09
2016-07-30T14:03:11.715Z,30.46
2016-07-30T14:04:12.035Z,30.71
2016-07-30T14:05:12.760Z,30.82
2016-07-30T14:06:16.417Z,30.74
2016-07-30T14:07:17.374Z,30.79
2016-07-30T14:08:12.342Z,30.98
2016-07-30T14:09:14.624Z,31.17
2016-07-30T14:10:17.876Z,31.35
2016-07-30T14:11:11.978Z,31.38
2016-07-30T14:12:13.001Z,31.06
2016-07-30T14:13:17.307Z,30.71
2016-07-30T14:14:17.837Z,30.11
2016-07-30T14:15:12.547Z,30.00
2016-07-30T14:16:12.564Z,30.09
2016-07-30T14:17:17.666Z,30.20
2016-07-30T14:18:18.338Z,30.36
2016-07-30T14:19:17.663Z,30.16
2016-07-30T14:20:11.774Z,30.21
2016-07-30T14:21:17.710Z,30.41
2016-07-30T14:22:12.800Z,30.47
2016-07-30T14:23:14.385Z,30.46
2016-07-30T14:24:17.905Z,30.11
2016-07-30T14:25:14.431Z,29.80
2016-07-30T14:26:11.936Z,29.73
2016-07-30T14:27:17.254Z,29.58
2016-07-30T14:28:13.524Z,29.55
2016-07-30T14:29:26.259Z,29.51
2016-07-30T14:30:11.982Z,29.56
2016-07-30T14:31:23.020Z,29.46
2016-07-30T14:32:23.015Z,29.39
2016-07-30T14:33:17.660Z,29.29
2016-07-30T14:34:18.184Z,29.19
2016-07-30T14:35:13.568Z,29.23
2016-07-30T14:36:12.024Z,29.27
2016-07-30T14:37:17.543Z,29.24
2016-07-30T14:38:10.641Z,29.26
2016-07-30T14:39:13.141Z,29.23
2016-07-30T14:40:19.510Z,29.12
2016-07-30T14:41:22.598Z,29.18
2016-07-30T14:42:18.654Z,29.18
2016-07-30T14:43:10.472Z,29.24
2016-07-30T14:44:18.154Z,29.16
2016-07-30T14:45:22.736Z,29.15
2016-07-30T14:46:12.347Z,29.12
2016-07-30T14:47:22.596Z,29.07
2016-07-30T14:48:17.803Z,29.04
2016-07-30T14:49:17.917Z,29.05
2016-07-30T14:50:16.366Z,29.18
2016-07-30T14:51:21.210Z,29.16
2016-07-30T14:52:18.404Z,29.15
2016-07-30T14:53:12.723Z,29.16
2016-07-30T14:54:12.091Z,29.11
2016-07-30T14:55:10.871Z,29.15
2016-07-30T14:56:19.665Z,29.15
2016-07-30T14:57:17.773Z,29.23
2016-07-30T14:58:22.951Z,29.26
2016-07-30T14:59:12.711Z,29.37
2016-07-30T15:00:12.523Z,29.48
2016-07-30T15:01:12.568Z,29.55
2016-07-30T15:02:13.626Z,29.65
2016-07-30T15:03:18.693Z,29.78
2016-07-30T15:04:17.614Z,30.00
2016-07-30T15:05:17.574Z,30.14
2016-07-30T15:06:18.197Z,30.21
2016-07-30T15:07:22.442Z,30.46
2016-07-30T15:08:16.739Z,30.70
2016-07-30T15:09:15.296Z,30.88
2016-07-30T15:10:12.010Z,31.11
2016-07-30T15:11:17.201Z,31.19
2016-07-30T15:12:11.942Z,31.43
2016-07-30T15:13:12.136Z,31.52
2016-07-30T15:14:11.878Z,31.74
2016-07-30T15:15:17.192Z,31.62
2016-07-30T15:16:18.942Z,31.54
2016-07-30T15:17:12.978Z,31.98
2016-07-30T15:18:23.706Z,32.28
2016-07-30T15:19:12.285Z,32.02
2016-07-30T15:20:12.546Z,32.28
2016-07-30T15:21:12.321Z,32.13
2016-07-30T15:22:12.575Z,32.16
2016-07-30T15:23:11.646Z,32.62
2016-07-30T15:24:08.087Z,32.49
2016-07-30T15:25:15.666Z,32.92
2016-07-30T15:26:14.119Z,32.72
2016-07-30T15:27:16.821Z,32.79
2016-07-30T15:28:13.612Z,33.07
2016-07-30T15:29:12.033Z,33.31
2016-07-30T15:30:19.893Z,33.58
2016-07-30T15:31:11.632Z,33.58
2016-07-30T15:32:11.451Z,33.14
2016-07-30T15:33:12.028Z,33.41
2016-07-30T15:34:11.728Z,33.20
2016-07-30T15:35:14.840Z,33.06
2016-07-30T15:36:22.318Z,33.36
2016-07-30T15:37:23.300Z,33.50
2016-07-30T15:38:08.602Z,33.63
2016-07-30T15:39:11.093Z,33.91
2016-07-30T15:40:11.471Z,34.28
2016-07-30T15:41:11.481Z,34.28
2016-07-30T15:42:11.494Z,34.36
2016-07-30T15:43:17.053Z,34.35
2016-07-30T15:44:11.691Z,34.62
2016-07-30T15:45:11.804Z,34.63
2016-07-30T15:46:17.448Z,34.35
2016-07-30T15:47:23.071Z,33.99
2016-07-30T15:48:11.636Z,33.83
2016-07-30T15:49:10.013Z,34.14
2016-07-30T15:50:18.290Z,34.31
2016-07-30T15:51:10.684Z,34.45
2016-07-30T15:52:11.971Z,34.13
2016-07-30T15:53:13.390Z,34.40
2016-07-30T15:54:12.687Z,34.74
2016-07-30T15:55:11.587Z,34.80
2016-07-30T15:56:11.502Z,34.37
2016-07-30T15:57:07.296Z,34.43
2016-07-30T15:58:12.114Z,34.62
2016-07-30T15:59:17.356Z,34.54
2016-07-30T16:00:12.142Z,34.82
2016-07-30T16:01:11.996Z,34.90
2016-07-30T16:02:11.494Z,34.83
2016-07-30T16:03:11.997Z,34.90
2016-07-30T16:04:11.968Z,34.94
2016-07-30T16:05:12.101Z,35.17
2016-07-30T16:06:11.902Z,35.20
2016-07-30T16:07:12.366Z,34.51
2016-07-30T16:08:10.593Z,34.44
2016-07-30T16:09:13.655Z,34.36
2016-07-30T16:10:11.718Z,34.75
2016-07-30T16:11:12.204Z,34.61
2016-07-30T16:12:12.424Z,34.96
2016-07-30T16:13:12.303Z,33.80
2016-07-30T16:14:12.016Z,33.47
2016-07-30T16:15:17.024Z,33.77
2016-07-30T16:16:17.999Z,34.16
2016-07-30T16:17:12.162Z,34.44
2016-07-30T16:18:12.209Z,34.52
2016-07-30T16:19:16.967Z,34.11
2016-07-30T16:20:12.284Z,33.83
2016-07-30T16:21:16.528Z,33.96
2016-07-30T16:22:17.064Z,33.97
2016-07-30T16:23:12.185Z,34.20
2016-07-30T16:24:12.143Z,34.32
2016-07-30T16:25:11.957Z,34.35
2016-07-30T16:26:11.869Z,33.95
2016-07-30T16:27:14.096Z,33.32
2016-07-30T16:28:09.203Z,33.71
2016-07-30T16:29:12.398Z,33.88
2016-07-30T16:30:18.357Z,34.14
2016-07-30T16:31:11.993Z,34.47
2016-07-30T16:32:17.085Z,34.49
2016-07-30T16:33:12.417Z,33.84
2016-07-30T16:34:17.300Z,34.17
2016-07-30T16:35:12.372Z,34.61
2016-07-30T16:36:12.368Z,34.63
2016-07-30T16:37:08.269Z,34.03
2016-07-30T16:38:11.301Z,33.95
2016-07-30T16:39:11.782Z,34.20
2016-07-30T16:40:09.288Z,34.20
2016-07-30T16:41:08.482Z,34.50
2016-07-30T16:42:14.275Z,34.74
2016-07-30T16:43:11.733Z,34.47
2016-07-30T16:44:16.997Z,33.73
2016-07-30T16:45:17.363Z,34.19
2016-07-30T16:46:11.811Z,33.95
2016-07-30T16:47:12.153Z,33.42
2016-07-30T16:48:11.443Z,33.48
2016-07-30T16:49:11.180Z,33.55
2016-07-30T16:50:12.170Z,33.81
2016-07-30T16:51:17.171Z,32.97
2016-07-30T16:52:11.611Z,33.11
2016-07-30T16:53:11.667Z,32.77
2016-07-30T16:54:08.033Z,32.95
2016-07-30T16:55:11.540Z,33.17
2016-07-30T16:56:12.367Z,32.89
2016-07-30T16:57:11.376Z,32.38